Capt. Tom EchoLS Sr. — WDC3771 — position and weather

sailwx.info

Track history (hours):
 
Tides and Currents Weather Stations Pressure Air Temp Water Temp Dewpoint Dewpoint Depression Visibility Wind Speed Wind Dir Waves Ship Positions

Capt. Tom EchoLS Sr.

Owner: Echo Towing Service, Inc. P.O. Box 446 Baytown, Texas 77522, Baytown, TX. More information available from US FCC via Universal Licensing System and Coast Guard Vessel Documentation Center.

Last reported at 2017-Dec-11 15:36 UTC. Time now 2017-Dec-12 19:59 UTC.
Position N 29°45' W 095°04'.

Length 19 m; draft 25.4 m.

Type: Tug. MMSI: 367125100.

Date/timePositionNaut miles runAvg speedWind from/ knotsBaromVisibWave heightAir tempDewpointWater temp
2017-Dec-11 15:36N 29°45' W 095°04'1 7.3
2017-Dec-11 15:30N 29°45' W 095°04'3 6.5
2017-Dec-11 15:00N 29°42' W 095°01'3 6.6
2017-Dec-11 14:30N 29°40' W 094°59'4 7.5
2017-Dec-11 14:00N 29°37' W 094°57'4 7.6
2017-Dec-11 13:30N 29°33' W 094°55'4 7.2
2017-Dec-11 12:56N 29°30' W 094°52'117 5.7
2017-Dec-10 16:12N 28°19' W 096°39'1 6.1
2017-Dec-10 16:00N 28°19' W 096°41'3 5.7
2017-Dec-10 15:29N 28°21' W 096°43'3 6.3
2017-Dec-10 15:00N 28°24' W 096°44'3 5.4
2017-Dec-10 14:29N 28°27' W 096°46'3 2.9
2017-Dec-10 13:32N 28°29' W 096°47'0 0.1
2017-Dec-10 13:30N 28°29' W 096°47'0 0.1
2017-Dec-10 11:21N 28°29' W 096°47'0 0.0
2017-Dec-10 10:57N 28°29' W 096°47'0 0.0
2017-Dec-10 10:30N 28°29' W 096°47'0 0.0
2017-Dec-10 10:00N 28°29' W 096°47'0 0.0
2017-Dec-10 09:30N 28°29' W 096°47'1 0.0
2017-Dec-09 11:34N 28°28' W 096°47'1 4.3
2017-Dec-09 11:27N 28°28' W 096°47'1 3.1
2017-Dec-09 10:59N 28°27' W 096°46'2 3.3
2017-Dec-09 10:30N 28°26' W 096°45'2 3.5
2017-Dec-09 09:59N 28°24' W 096°44'  
2017-Dec-04 10:23N 29°36' W 095°01'0 0.0
2017-Dec-04 09:59N 29°36' W 095°01'0 0.0
2017-Dec-04 09:29N 29°36' W 095°01'0 0.0
2017-Dec-04 08:59N 29°36' W 095°01'0 0.0
2017-Dec-04 08:29N 29°36' W 095°01'0 0.0
2017-Dec-04 07:59N 29°36' W 095°01'0 0.0
2017-Dec-04 07:29N 29°36' W 095°01'0 0.0
2017-Dec-04 06:59N 29°36' W 095°01'0 0.0
2017-Dec-04 06:29N 29°36' W 095°01'0 0.0
2017-Dec-04 05:59N 29°36' W 095°01'0 0.0
2017-Dec-04 05:29N 29°36' W 095°01'0 0.0
2017-Dec-04 04:59N 29°36' W 095°01'0 0.0
2017-Dec-04 04:29N 29°36' W 095°01'0 0.0
2017-Dec-04 03:59N 29°36' W 095°01'0 0.0
2017-Dec-04 03:29N 29°36' W 095°01'0 0.0
2017-Dec-04 02:59N 29°36' W 095°01'0 0.0
2017-Dec-04 02:29N 29°36' W 095°01'0 0.0
2017-Dec-04 01:59N 29°36' W 095°01'0 0.0
2017-Dec-04 01:29N 29°36' W 095°01'0 0.0
2017-Dec-04 00:59N 29°36' W 095°01'0 0.1
2017-Dec-04 00:30N 29°37' W 095°01'0 0.6
2017-Dec-04 00:01N 29°37' W 095°01'2 4.2
2017-Dec-03 23:30N 29°37' W 094°59'2 4.6
2017-Dec-03 23:00N 29°39' W 094°58'3 6.6
2017-Dec-03 22:30N 29°42' W 094°60'3 5.9
2017-Dec-03 22:00N 29°44' W 095°03'3 6.5
2017-Dec-03 21:30N 29°46' W 095°05'1 0.4
2017-Dec-03 19:13N 29°45' W 095°06'0 0.0
2017-Dec-03 18:49N 29°45' W 095°06'0 0.0
2017-Dec-03 18:13N 29°45' W 095°06'0 0.0
2017-Dec-03 17:52N 29°45' W 095°06'0 0.0
2017-Dec-03 15:46N 29°45' W 095°06'0 0.0
2017-Dec-03 15:28N 29°45' W 095°06'0 0.0
2017-Dec-03 06:46N 29°45' W 095°06'1 1.3
2017-Dec-03 05:49N 29°46' W 095°07'0 0.7
2017-Dec-03 05:29N 29°46' W 095°07'1 1.3
2017-Dec-03 05:00N 29°46' W 095°06'0 0.0
2017-Dec-03 04:24N 29°46' W 095°06'0 1.2
2017-Dec-03 04:00N 29°45' W 095°06'3 6.6
2017-Dec-03 03:30N 29°44' W 095°09'1 2.7
2017-Dec-03 02:57N 29°45' W 095°11'2 5.0
2017-Dec-03 02:30N 29°44' W 095°08'3 5.0
2017-Dec-03 01:56N 29°46' W 095°06'0 0.8
2017-Dec-03 01:27N 29°46' W 095°05'3 6.2
2017-Dec-03 01:00N 29°44' W 095°08'3 5.1
2017-Dec-03 00:30N 29°45' W 095°11'1 1.3
2017-Dec-03 00:00N 29°45' W 095°10'3 6.3
2017-Dec-02 23:30N 29°45' W 095°06'1 1.9
2017-Dec-02 22:55N 29°46' W 095°07'1 2.9
2017-Dec-02 22:27N 29°46' W 095°05'0 0.0
2017-Dec-02 22:00N 29°46' W 095°05'0 0.3
2017-Dec-02 21:21N 29°46' W 095°05'1 0.2
2017-Dec-02 16:28N 29°45' W 095°06'0 0.0
2017-Dec-02 15:52N 29°45' W 095°06'1 0.3
2017-Dec-02 12:29N 29°46' W 095°05'0 0.1
2017-Dec-02 10:03N 29°46' W 095°05'0 0.0
2017-Dec-02 10:00N 29°46' W 095°05'0 0.0
2017-Dec-02 09:18N 29°46' W 095°05'1 2.3
2017-Dec-02 09:00N 29°45' W 095°06'3 5.5
2017-Dec-02 08:30N 29°44' W 095°08'3 5.4
2017-Dec-02 08:00N 29°45' W 095°11'2 4.7
2017-Dec-02 07:30N 29°44' W 095°14'0 0.0
2017-Dec-02 06:59N 29°44' W 095°14'0 0.0
2017-Dec-02 06:20N 29°44' W 095°14'0 0.0
2017-Dec-02 05:56N 29°44' W 095°14'0 0.0
2017-Dec-02 04:38N 29°44' W 095°14'0 0.0
2017-Dec-02 04:21N 29°44' W 095°14'0 0.4
2017-Dec-02 03:41N 29°44' W 095°14'1 4.0
2017-Dec-02 03:30N 29°44' W 095°13'3 6.1
2017-Dec-02 03:00N 29°44' W 095°09'3 6.5
2017-Dec-02 02:29N 29°45' W 095°06'0 0.7
2017-Dec-02 01:59N 29°46' W 095°05'0 0.3
2017-Dec-02 01:27N 29°45' W 095°06'1 0.3
2017-Dec-01 23:18N 29°46' W 095°05'1 2.4
2017-Dec-01 22:46N 29°45' W 095°04'2 7.4
2017-Dec-01 22:30N 29°44' W 095°03'4 7.1
2017-Dec-01 22:00N 29°42' W 094°59'4 7.6
2017-Dec-01 21:30N 29°38' W 094°58'3 5.1
2017-Dec-01 21:00N 29°37' W 095°00'1 2.2
2017-Dec-01 20:29N 29°37' W 095°02'0 0.0
2017-Dec-01 19:59N 29°37' W 095°02'0 0.0
2017-Dec-01 19:29N 29°37' W 095°02'0 0.0
2017-Dec-01 18:56N 29°37' W 095°02'0 0.0
2017-Dec-01 18:29N 29°37' W 095°02'0 0.0
2017-Dec-01 17:56N 29°37' W 095°02'0 0.0
2017-Dec-01 17:26N 29°37' W 095°02'0 0.0
2017-Dec-01 16:59N 29°37' W 095°02'0 0.0
2017-Dec-01 16:29N 29°37' W 095°02'0 0.0
2017-Dec-01 15:59N 29°37' W 095°02'  
Track history (hours):
 
Tides and Currents Weather Stations Pressure Air Temp Water Temp Dewpoint Dewpoint Depression Visibility Wind Speed Wind Dir Waves Ship Positions

Capt. Tom EchoLS Sr.

Owner: Echo Towing Service, Inc. P.O. Box 446 Baytown, Texas 77522, Baytown, TX. More information available from US FCC via Universal Licensing System and Coast Guard Vessel Documentation Center.

Last reported at 2017-Dec-11 15:36 UTC. Time now 2017-Dec-12 19:59 UTC.
Position N 29°45' W 095°04'.

Length 19 m; draft 25.4 m.

Type: Tug. MMSI: 367125100.

Date/timePositionNaut miles runAvg speedWind from/ knotsBaromVisibWave heightAir tempDewpointWater temp
2017-Dec-11 15:36N 29°45' W 095°04'1 7.3
2017-Dec-11 15:30N 29°45' W 095°04'3 6.5
2017-Dec-11 15:00N 29°42' W 095°01'3 6.6
2017-Dec-11 14:30N 29°40' W 094°59'4 7.5
2017-Dec-11 14:00N 29°37' W 094°57'4 7.6
2017-Dec-11 13:30N 29°33' W 094°55'4 7.2
2017-Dec-11 12:56N 29°30' W 094°52'117 5.7
2017-Dec-10 16:12N 28°19' W 096°39'1 6.1
2017-Dec-10 16:00N 28°19' W 096°41'3 5.7
2017-Dec-10 15:29N 28°21' W 096°43'3 6.3
2017-Dec-10 15:00N 28°24' W 096°44'3 5.4
2017-Dec-10 14:29N 28°27' W 096°46'3 2.9
2017-Dec-10 13:32N 28°29' W 096°47'0 0.1
2017-Dec-10 13:30N 28°29' W 096°47'0 0.1
2017-Dec-10 11:21N 28°29' W 096°47'0 0.0
2017-Dec-10 10:57N 28°29' W 096°47'0 0.0
2017-Dec-10 10:30N 28°29' W 096°47'0 0.0
2017-Dec-10 10:00N 28°29' W 096°47'0 0.0
2017-Dec-10 09:30N 28°29' W 096°47'1 0.0
2017-Dec-09 11:34N 28°28' W 096°47'1 4.3
2017-Dec-09 11:27N 28°28' W 096°47'1 3.1
2017-Dec-09 10:59N 28°27' W 096°46'2 3.3
2017-Dec-09 10:30N 28°26' W 096°45'2 3.5
2017-Dec-09 09:59N 28°24' W 096°44'  
2017-Dec-04 10:23N 29°36' W 095°01'0 0.0
2017-Dec-04 09:59N 29°36' W 095°01'0 0.0
2017-Dec-04 09:29N 29°36' W 095°01'0 0.0
2017-Dec-04 08:59N 29°36' W 095°01'0 0.0
2017-Dec-04 08:29N 29°36' W 095°01'0 0.0
2017-Dec-04 07:59N 29°36' W 095°01'0 0.0
2017-Dec-04 07:29N 29°36' W 095°01'0 0.0
2017-Dec-04 06:59N 29°36' W 095°01'0 0.0
2017-Dec-04 06:29N 29°36' W 095°01'0 0.0
2017-Dec-04 05:59N 29°36' W 095°01'0 0.0
2017-Dec-04 05:29N 29°36' W 095°01'0 0.0
2017-Dec-04 04:59N 29°36' W 095°01'0 0.0
2017-Dec-04 04:29N 29°36' W 095°01'0 0.0
2017-Dec-04 03:59N 29°36' W 095°01'0 0.0
2017-Dec-04 03:29N 29°36' W 095°01'0 0.0
2017-Dec-04 02:59N 29°36' W 095°01'0 0.0
2017-Dec-04 02:29N 29°36' W 095°01'0 0.0
2017-Dec-04 01:59N 29°36' W 095°01'0 0.0
2017-Dec-04 01:29N 29°36' W 095°01'0 0.0
2017-Dec-04 00:59N 29°36' W 095°01'0 0.1
2017-Dec-04 00:30N 29°37' W 095°01'0 0.6
2017-Dec-04 00:01N 29°37' W 095°01'2 4.2
2017-Dec-03 23:30N 29°37' W 094°59'2 4.6
2017-Dec-03 23:00N 29°39' W 094°58'3 6.6
2017-Dec-03 22:30N 29°42' W 094°60'3 5.9
2017-Dec-03 22:00N 29°44' W 095°03'3 6.5
2017-Dec-03 21:30N 29°46' W 095°05'1 0.4
2017-Dec-03 19:13N 29°45' W 095°06'0 0.0
2017-Dec-03 18:49N 29°45' W 095°06'0 0.0
2017-Dec-03 18:13N 29°45' W 095°06'0 0.0
2017-Dec-03 17:52N 29°45' W 095°06'0 0.0
2017-Dec-03 15:46N 29°45' W 095°06'0 0.0
2017-Dec-03 15:28N 29°45' W 095°06'0 0.0
2017-Dec-03 06:46N 29°45' W 095°06'1 1.3
2017-Dec-03 05:49N 29°46' W 095°07'0 0.7
2017-Dec-03 05:29N 29°46' W 095°07'1 1.3
2017-Dec-03 05:00N 29°46' W 095°06'0 0.0
2017-Dec-03 04:24N 29°46' W 095°06'0 1.2
2017-Dec-03 04:00N 29°45' W 095°06'3 6.6
2017-Dec-03 03:30N 29°44' W 095°09'1 2.7
2017-Dec-03 02:57N 29°45' W 095°11'2 5.0
2017-Dec-03 02:30N 29°44' W 095°08'3 5.0
2017-Dec-03 01:56N 29°46' W 095°06'0 0.8
2017-Dec-03 01:27N 29°46' W 095°05'3 6.2
2017-Dec-03 01:00N 29°44' W 095°08'3 5.1
2017-Dec-03 00:30N 29°45' W 095°11'1 1.3
2017-Dec-03 00:00N 29°45' W 095°10'3 6.3
2017-Dec-02 23:30N 29°45' W 095°06'1 1.9
2017-Dec-02 22:55N 29°46' W 095°07'1 2.9
2017-Dec-02 22:27N 29°46' W 095°05'0 0.0
2017-Dec-02 22:00N 29°46' W 095°05'0 0.3
2017-Dec-02 21:21N 29°46' W 095°05'1 0.2
2017-Dec-02 16:28N 29°45' W 095°06'0 0.0
2017-Dec-02 15:52N 29°45' W 095°06'1 0.3
2017-Dec-02 12:29N 29°46' W 095°05'0 0.1
2017-Dec-02 10:03N 29°46' W 095°05'0 0.0
2017-Dec-02 10:00N 29°46' W 095°05'0 0.0
2017-Dec-02 09:18N 29°46' W 095°05'1 2.3
2017-Dec-02 09:00N 29°45' W 095°06'3 5.5
2017-Dec-02 08:30N 29°44' W 095°08'3 5.4
2017-Dec-02 08:00N 29°45' W 095°11'2 4.7
2017-Dec-02 07:30N 29°44' W 095°14'0 0.0
2017-Dec-02 06:59N 29°44' W 095°14'0 0.0
2017-Dec-02 06:20N 29°44' W 095°14'0 0.0
2017-Dec-02 05:56N 29°44' W 095°14'0 0.0
2017-Dec-02 04:38N 29°44' W 095°14'0 0.0
2017-Dec-02 04:21N 29°44' W 095°14'0 0.4
2017-Dec-02 03:41N 29°44' W 095°14'1 4.0
2017-Dec-02 03:30N 29°44' W 095°13'3 6.1
2017-Dec-02 03:00N 29°44' W 095°09'3 6.5
2017-Dec-02 02:29N 29°45' W 095°06'0 0.7
2017-Dec-02 01:59N 29°46' W 095°05'0 0.3
2017-Dec-02 01:27N 29°45' W 095°06'1 0.3
2017-Dec-01 23:18N 29°46' W 095°05'1 2.4
2017-Dec-01 22:46N 29°45' W 095°04'2 7.4
2017-Dec-01 22:30N 29°44' W 095°03'4 7.1
2017-Dec-01 22:00N 29°42' W 094°59'4 7.6
2017-Dec-01 21:30N 29°38' W 094°58'3 5.1
2017-Dec-01 21:00N 29°37' W 095°00'1 2.2
2017-Dec-01 20:29N 29°37' W 095°02'0 0.0
2017-Dec-01 19:59N 29°37' W 095°02'0 0.0
2017-Dec-01 19:29N 29°37' W 095°02'0 0.0
2017-Dec-01 18:56N 29°37' W 095°02'0 0.0
2017-Dec-01 18:29N 29°37' W 095°02'0 0.0
2017-Dec-01 17:56N 29°37' W 095°02'0 0.0
2017-Dec-01 17:26N 29°37' W 095°02'0 0.0
2017-Dec-01 16:59N 29°37' W 095°02'0 0.0
2017-Dec-01 16:29N 29°37' W 095°02'0 0.0
2017-Dec-01 15:59N 29°37' W 095°02'  

Dump ship's entire track history